createdAt,value
2019-01-26T00:00:33.118Z,23.37
2019-01-26T00:03:05.285Z,23.33
2019-01-26T00:05:37.070Z,24.03
2019-01-26T00:08:20.609Z,23.20
2019-01-26T00:10:52.517Z,25.17
2019-01-26T00:13:24.215Z,20.40
2019-01-26T00:15:56.133Z,24.23
2019-01-26T00:18:27.740Z,26.73
2019-01-26T00:20:59.327Z,23.43
2019-01-26T00:23:30.940Z,18.77
2019-01-26T00:26:02.713Z,22.43
2019-01-26T00:28:34.325Z,21.63
2019-01-26T00:31:06.135Z,20.97
2019-01-26T00:33:37.752Z,21.27
2019-01-26T00:36:09.358Z,23.07
2019-01-26T00:38:40.946Z,20.67
2019-01-26T00:41:12.913Z,20.23
2019-01-26T00:43:44.531Z,21.63
2019-01-26T00:46:16.679Z,21.60
2019-01-26T00:48:48.265Z,20.63
2019-01-26T00:51:19.867Z,21.07
2019-01-26T00:53:51.572Z,20.43
2019-01-26T00:56:23.545Z,20.20
2019-01-26T00:58:55.184Z,21.50
2019-01-26T01:01:26.832Z,21.23
2019-01-26T01:03:58.818Z,20.80
2019-01-26T01:06:30.486Z,20.90
2019-01-26T01:09:02.237Z,21.40
2019-01-26T01:11:36.179Z,22.80
2019-01-26T01:14:07.813Z,21.70
2019-01-26T01:16:40.495Z,23.17
2019-01-26T01:19:12.581Z,23.23
2019-01-26T01:21:44.243Z,22.53
2019-01-26T01:24:16.497Z,19.50
2019-01-26T01:26:48.335Z,21.63
2019-01-26T01:29:19.914Z,22.90
2019-01-26T01:31:51.589Z,20.73
2019-01-26T01:34:23.582Z,21.27
2019-01-26T01:36:55.183Z,20.53
2019-01-26T01:39:26.965Z,20.53
2019-01-26T01:41:59.381Z,22.67
2019-01-26T01:44:31.165Z,22.63
2019-01-26T01:47:05.899Z,23.30
2019-01-26T01:49:37.962Z,19.13
2019-01-26T01:52:09.564Z,22.50
2019-01-26T01:54:41.246Z,22.13
2019-01-26T01:57:14.143Z,22.00
2019-01-26T01:59:45.726Z,19.57
2019-01-26T02:02:17.332Z,21.33
2019-01-26T02:04:48.941Z,19.07
2019-01-26T02:07:29.668Z,18.97
2019-01-26T02:10:12.264Z,20.67
2019-01-26T02:12:46.903Z,20.40
2019-01-26T02:15:18.648Z,19.37
2019-01-26T02:17:50.268Z,23.10
2019-01-26T02:20:22.924Z,19.57
2019-01-26T02:22:54.507Z,17.07
2019-01-26T02:25:26.102Z,19.00
2019-01-26T02:27:59.029Z,20.10
2019-01-26T02:30:30.645Z,20.47
2019-01-26T02:33:02.254Z,27.93
2019-01-26T02:35:35.604Z,25.87
2019-01-26T02:38:07.357Z,23.83
2019-01-26T02:40:38.962Z,21.23
2019-01-26T02:43:10.568Z,23.33
2019-01-26T02:45:42.160Z,27.63
2019-01-26T02:48:13.847Z,32.57
2019-01-26T02:50:45.491Z,29.23
2019-01-26T02:53:18.155Z,26.30
2019-01-26T02:55:49.735Z,23.07
2019-01-26T02:58:21.339Z,24.37
2019-01-26T03:00:53.527Z,29.20
2019-01-26T03:03:25.159Z,27.67
2019-01-26T03:05:57.558Z,29.47
2019-01-26T03:08:29.231Z,27.20
2019-01-26T03:11:00.942Z,24.53
2019-01-26T03:13:32.526Z,21.23
2019-01-26T03:16:04.841Z,23.47
2019-01-26T03:18:36.451Z,21.23
2019-01-26T03:21:08.133Z,19.00
2019-01-26T03:23:39.919Z,21.00
2019-01-26T03:26:11.520Z,20.70
2019-01-26T03:28:43.117Z,23.43
2019-01-26T03:31:14.709Z,22.60
2019-01-26T03:33:46.408Z,18.40
2019-01-26T03:36:18.897Z,18.87
2019-01-26T03:38:50.724Z,21.03
2019-01-26T03:41:22.339Z,21.77
2019-01-26T03:43:55.012Z,23.20
2019-01-26T03:46:26.673Z,22.13
2019-01-26T03:48:58.276Z,22.67
2019-01-26T03:51:29.876Z,23.37
2019-01-26T03:54:01.554Z,20.60
2019-01-26T03:56:33.143Z,21.17
2019-01-26T03:59:05.371Z,19.67
2019-01-26T04:01:37.015Z,19.90
2019-01-26T04:04:08.621Z,19.63
2019-01-26T04:06:40.262Z,23.13
2019-01-26T04:09:11.864Z,20.37
2019-01-26T04:11:43.533Z,21.10
2019-01-26T04:14:15.318Z,20.97
2019-01-26T04:16:46.907Z,20.93
2019-01-26T04:19:18.556Z,19.57
2019-01-26T04:21:58.811Z,22.50
2019-01-26T04:24:32.729Z,18.43
2019-01-26T04:27:04.339Z,21.77
2019-01-26T04:29:35.932Z,20.27
2019-01-26T04:32:07.553Z,20.77
2019-01-26T04:34:39.292Z,20.50
2019-01-26T04:37:10.910Z,20.63
2019-01-26T04:39:42.484Z,19.60
2019-01-26T04:42:14.103Z,23.80
2019-01-26T04:44:45.712Z,18.60
2019-01-26T04:47:17.294Z,18.07
2019-01-26T04:49:48.996Z,20.33
2019-01-26T04:52:21.134Z,20.47
2019-01-26T04:54:52.812Z,19.97
2019-01-26T04:57:24.427Z,18.00
2019-01-26T04:59:56.086Z,19.73
2019-01-26T05:02:27.685Z,19.50
2019-01-26T05:04:59.289Z,19.67
2019-01-26T05:07:30.904Z,20.70
2019-01-26T05:10:02.520Z,20.47
2019-01-26T05:12:34.125Z,18.03
2019-01-26T05:15:10.149Z,22.60
2019-01-26T05:17:41.756Z,22.50
2019-01-26T05:20:23.376Z,19.37
2019-01-26T05:22:55.009Z,21.33
2019-01-26T05:25:26.616Z,22.13
2019-01-26T05:27:58.380Z,19.20
2019-01-26T05:30:29.997Z,22.93
2019-01-26T05:33:01.600Z,18.83
2019-01-26T05:35:33.224Z,19.90
2019-01-26T05:38:04.826Z,19.40
2019-01-26T05:40:36.428Z,19.47
2019-01-26T05:43:09.111Z,19.53
2019-01-26T05:45:41.027Z,18.13
2019-01-26T05:48:12.638Z,18.97
2019-01-26T05:50:44.253Z,18.83
2019-01-26T05:53:15.952Z,20.53
2019-01-26T05:55:47.594Z,18.67
2019-01-26T05:58:19.161Z,19.70
2019-01-26T06:00:50.762Z,21.37
2019-01-26T06:03:22.438Z,18.67
2019-01-26T06:05:54.141Z,19.10
2019-01-26T06:08:25.788Z,20.13
2019-01-26T06:10:57.384Z,17.83
2019-01-26T06:13:28.986Z,18.63
2019-01-26T06:16:00.629Z,19.43
2019-01-26T06:18:32.210Z,20.63
2019-01-26T06:21:04.592Z,20.93
2019-01-26T06:23:36.250Z,19.77
2019-01-26T06:26:07.849Z,22.37
2019-01-26T06:28:39.470Z,19.57
2019-01-26T06:31:11.389Z,19.63
2019-01-26T06:33:43.005Z,24.23
2019-01-26T06:36:14.684Z,21.30
2019-01-26T06:38:46.394Z,20.57
2019-01-26T06:41:17.999Z,22.27
2019-01-26T06:43:49.676Z,25.13
2019-01-26T06:46:21.267Z,20.33
2019-01-26T06:48:54.505Z,21.30
2019-01-26T06:51:26.105Z,23.17
2019-01-26T06:53:57.691Z,24.67
2019-01-26T06:56:29.290Z,21.80
2019-01-26T06:59:00.899Z,22.47
2019-01-26T07:01:32.669Z,23.63
2019-01-26T07:04:04.868Z,22.27
2019-01-26T07:06:38.963Z,22.03
2019-01-26T07:09:10.585Z,20.50
2019-01-26T07:11:42.344Z,25.83
2019-01-26T07:14:14.211Z,23.10
2019-01-26T07:16:45.806Z,25.67
2019-01-26T07:19:17.657Z,26.57
2019-01-26T07:21:49.390Z,23.27
2019-01-26T07:24:20.994Z,22.87
2019-01-26T07:26:52.635Z,24.23
2019-01-26T07:29:24.225Z,23.70
2019-01-26T07:31:57.458Z,25.33
2019-01-26T07:34:30.717Z,24.40
2019-01-26T07:37:02.483Z,22.70
2019-01-26T07:39:34.085Z,23.77
2019-01-26T07:42:05.655Z,22.73
2019-01-26T07:44:41.481Z,22.63
2019-01-26T07:47:13.339Z,24.17
2019-01-26T07:49:45.024Z,24.23
2019-01-26T07:52:16.665Z,27.93
2019-01-26T07:54:48.823Z,20.30
2019-01-26T07:57:20.432Z,24.93
2019-01-26T07:59:52.673Z,31.70
2019-01-26T08:02:24.265Z,21.67
2019-01-26T08:04:55.861Z,23.53
2019-01-26T08:07:28.645Z,21.17
2019-01-26T08:10:00.336Z,21.63
2019-01-26T08:12:31.938Z,22.03
2019-01-26T08:15:04.583Z,24.27
2019-01-26T08:17:36.426Z,21.93
2019-01-26T08:20:17.478Z,22.33
2019-01-26T08:22:49.089Z,22.43
2019-01-26T08:25:20.751Z,57.03
2019-01-26T08:27:52.333Z,33.13
2019-01-26T08:30:24.963Z,25.07
2019-01-26T08:32:56.556Z,34.03
2019-01-26T08:35:28.133Z,30.43
2019-01-26T08:37:59.926Z,29.33
2019-01-26T08:40:31.585Z,27.77
2019-01-26T08:43:03.233Z,27.90
2019-01-26T08:45:34.829Z,27.77
2019-01-26T08:48:07.337Z,23.77
2019-01-26T08:50:38.918Z,23.50
2019-01-26T08:53:10.560Z,28.13
2019-01-26T08:55:42.148Z,28.07
2019-01-26T08:58:14.246Z,24.47
2019-01-26T09:00:45.807Z,27.43
2019-01-26T09:03:25.003Z,25.97
2019-01-26T09:06:02.814Z,24.47
2019-01-26T09:08:35.878Z,23.80
2019-01-26T09:11:07.462Z,26.30
2019-01-26T09:13:39.036Z,24.70
2019-01-26T09:16:10.767Z,22.73
2019-01-26T09:18:42.399Z,25.27
2019-01-26T09:21:13.970Z,25.37
2019-01-26T09:23:45.941Z,24.50
2019-01-26T09:26:17.521Z,26.13
2019-01-26T09:28:49.190Z,26.20
2019-01-26T09:31:20.821Z,23.07
2019-01-26T09:33:52.450Z,21.97
2019-01-26T09:36:24.038Z,22.63
2019-01-26T09:38:55.627Z,22.77
2019-01-26T09:41:27.865Z,27.43
2019-01-26T09:43:59.449Z,44.63
2019-01-26T09:46:31.054Z,24.60
2019-01-26T09:49:03.585Z,30.33
2019-01-26T09:51:35.351Z,24.13
2019-01-26T09:54:06.918Z,22.50
2019-01-26T09:56:38.497Z,22.53
2019-01-26T09:59:10.083Z,30.87
2019-01-26T10:01:41.685Z,24.60
2019-01-26T10:04:13.398Z,24.90
2019-01-26T10:06:44.986Z,21.67
2019-01-26T10:09:16.588Z,19.83
2019-01-26T10:11:48.256Z,20.33
2019-01-26T10:14:19.846Z,19.83
2019-01-26T10:16:54.507Z,21.93
2019-01-26T10:19:26.430Z,19.90
2019-01-26T10:21:58.103Z,21.27
2019-01-26T10:24:29.684Z,20.60
2019-01-26T10:27:01.349Z,19.50
2019-01-26T10:29:32.940Z,19.10
2019-01-26T10:32:05.109Z,19.47
2019-01-26T10:34:36.865Z,21.43
2019-01-26T10:37:10.084Z,19.03
2019-01-26T10:39:41.739Z,27.17
2019-01-26T10:42:15.018Z,19.47
2019-01-26T10:44:49.276Z,18.73
2019-01-26T10:47:21.205Z,18.70
2019-01-26T10:49:52.816Z,20.47
2019-01-26T10:52:24.376Z,19.73
2019-01-26T10:54:55.968Z,18.60
2019-01-26T10:57:27.558Z,17.17
2019-01-26T10:59:59.127Z,17.90
2019-01-26T11:02:30.723Z,20.10
2019-01-26T11:05:02.429Z,18.50
2019-01-26T11:07:34.001Z,18.47
2019-01-26T11:10:10.788Z,18.37
2019-01-26T11:12:42.474Z,18.47
2019-01-26T11:15:15.085Z,18.83
2019-01-26T11:17:46.753Z,17.27
2019-01-26T11:20:18.360Z,20.83
2019-01-26T11:22:50.032Z,17.33
2019-01-26T11:25:21.857Z,20.47
2019-01-26T11:27:53.410Z,19.07
2019-01-26T11:30:27.145Z,18.77
2019-01-26T11:32:58.844Z,20.07
2019-01-26T11:35:30.557Z,18.73
2019-01-26T11:38:02.138Z,18.30
2019-01-26T11:40:33.764Z,18.93
2019-01-26T11:43:05.346Z,19.17
2019-01-26T11:45:43.183Z,16.60
2019-01-26T11:48:28.519Z,18.53
2019-01-26T11:51:04.735Z,18.80
2019-01-26T11:53:36.325Z,25.47
2019-01-26T11:56:25.820Z,20.20
2019-01-26T11:58:57.417Z,20.17
2019-01-26T12:01:44.660Z,21.30
2019-01-26T12:04:17.883Z,21.07
2019-01-26T12:06:51.162Z,21.53
2019-01-26T12:09:22.826Z,22.60
2019-01-26T12:11:54.474Z,21.80
2019-01-26T12:14:26.250Z,24.10
2019-01-26T12:16:57.928Z,26.80
2019-01-26T12:19:29.548Z,26.10
2019-01-26T12:22:01.147Z,19.27
2019-01-26T12:24:32.766Z,19.23
2019-01-26T12:27:04.446Z,20.13
2019-01-26T12:29:36.344Z,20.13
2019-01-26T12:32:07.904Z,19.50
2019-01-26T12:34:39.596Z,21.27
2019-01-26T12:37:11.192Z,20.33
2019-01-26T12:39:42.809Z,22.17
2019-01-26T12:42:14.425Z,21.80
2019-01-26T12:44:46.250Z,22.97
2019-01-26T12:47:17.926Z,25.50
2019-01-26T12:49:49.531Z,23.43
2019-01-26T12:52:21.259Z,21.47
2019-01-26T12:54:52.850Z,20.37
2019-01-26T12:57:24.573Z,22.03
2019-01-26T12:59:56.301Z,23.57
2019-01-26T13:02:27.887Z,20.60
2019-01-26T13:04:59.754Z,23.63
2019-01-26T13:07:31.365Z,23.40
2019-01-26T13:10:05.346Z,23.97
2019-01-26T13:12:37.010Z,23.60
2019-01-26T13:15:15.217Z,25.87
2019-01-26T13:17:42.312Z,25.03
2019-01-26T13:20:17.351Z,23.73
2019-01-26T13:22:48.940Z,24.27
2019-01-26T13:25:20.689Z,25.63
2019-01-26T13:27:52.367Z,26.63
2019-01-26T13:30:25.573Z,23.77
2019-01-26T13:32:58.085Z,24.47
2019-01-26T13:35:29.709Z,32.77
2019-01-26T13:38:01.306Z,30.00
2019-01-26T13:40:36.374Z,32.37
2019-01-26T13:43:07.967Z,43.70
2019-01-26T13:45:40.736Z,34.87
2019-01-26T13:48:12.317Z,26.70
2019-01-26T13:50:43.917Z,25.83
2019-01-26T13:53:15.528Z,25.33
2019-01-26T13:55:47.555Z,24.00
2019-01-26T13:58:19.844Z,27.73
2019-01-26T14:00:51.505Z,24.67
2019-01-26T14:03:23.113Z,27.50
2019-01-26T14:05:55.033Z,28.67
2019-01-26T14:08:26.694Z,30.93
2019-01-26T14:10:59.204Z,30.10
2019-01-26T14:13:30.811Z,23.60
2019-01-26T14:16:02.389Z,21.00
2019-01-26T14:18:34.021Z,26.37
2019-01-26T14:21:05.995Z,24.83
2019-01-26T14:23:42.717Z,24.13
2019-01-26T14:26:14.570Z,24.07
2019-01-26T14:28:46.199Z,24.63
2019-01-26T14:31:18.033Z,26.23
2019-01-26T14:33:50.624Z,22.20
2019-01-26T14:36:22.369Z,26.13
2019-01-26T14:38:53.973Z,24.13
2019-01-26T14:41:26.349Z,28.80
2019-01-26T14:43:59.590Z,26.23
2019-01-26T14:46:31.311Z,22.57
2019-01-26T14:49:03.062Z,26.33
2019-01-26T14:51:34.761Z,26.30
2019-01-26T14:54:06.775Z,24.77
2019-01-26T14:56:41.741Z,22.27
2019-01-26T14:59:13.337Z,28.23
2019-01-26T15:01:46.383Z,23.03
2019-01-26T15:04:18.050Z,22.93
2019-01-26T15:06:49.710Z,23.73
2019-01-26T15:09:21.880Z,23.87
2019-01-26T15:11:56.383Z,23.37
2019-01-26T15:14:28.272Z,20.73
2019-01-26T15:17:05.073Z,22.03
2019-01-26T15:19:41.371Z,19.40
2019-01-26T15:22:13.118Z,19.57
2019-01-26T15:24:44.683Z,23.23
2019-01-26T15:27:16.531Z,27.20
2019-01-26T15:29:48.198Z,27.53
2019-01-26T15:32:19.802Z,27.57
2019-01-26T15:34:51.395Z,32.03
2019-01-26T15:37:24.124Z,36.50
2019-01-26T15:39:55.800Z,43.90
2019-01-26T15:42:27.474Z,43.13
2019-01-26T15:44:59.079Z,45.90
2019-01-26T15:47:30.743Z,45.20
2019-01-26T15:50:02.327Z,43.63
2019-01-26T15:52:34.043Z,48.10
2019-01-26T15:55:10.568Z,41.50
2019-01-26T15:57:42.223Z,37.80
2019-01-26T16:00:18.489Z,44.10
2019-01-26T16:02:50.283Z,37.67
2019-01-26T16:05:21.924Z,34.50
2019-01-26T16:07:53.602Z,33.50
2019-01-26T16:10:25.919Z,34.63
2019-01-26T16:12:57.649Z,35.97
2019-01-26T16:15:37.911Z,33.27
2019-01-26T16:18:12.537Z,35.97
2019-01-26T16:20:44.231Z,37.57
2019-01-26T16:23:16.635Z,40.53
2019-01-26T16:25:48.528Z,40.97
2019-01-26T16:28:20.214Z,41.63
2019-01-26T16:30:51.882Z,42.23
2019-01-26T16:33:23.449Z,38.07
2019-01-26T16:35:55.041Z,42.10
2019-01-26T16:38:26.650Z,37.13
2019-01-26T16:40:58.339Z,39.63
2019-01-26T16:43:29.976Z,37.07
2019-01-26T16:46:01.651Z,36.63
2019-01-26T16:48:33.243Z,38.53
2019-01-26T16:51:05.062Z,37.53
2019-01-26T16:53:36.679Z,36.57
2019-01-26T16:56:08.288Z,36.03
2019-01-26T16:58:40.025Z,38.47
2019-01-26T17:01:12.706Z,47.53
2019-01-26T17:03:44.478Z,41.53
2019-01-26T17:06:16.281Z,39.93
2019-01-26T17:08:48.242Z,42.27
2019-01-26T17:11:21.464Z,40.77
2019-01-26T17:13:53.129Z,42.20
2019-01-26T17:16:25.461Z,39.40
2019-01-26T17:18:57.067Z,40.33
2019-01-26T17:21:28.847Z,71.87
2019-01-26T17:24:00.508Z,68.30
2019-01-26T17:26:32.172Z,51.27
2019-01-26T17:29:03.850Z,50.03
2019-01-26T17:31:35.657Z,49.97
2019-01-26T17:34:07.321Z,51.80
2019-01-26T17:36:42.329Z,52.57
2019-01-26T17:39:15.123Z,45.87
2019-01-26T17:41:49.663Z,43.57
2019-01-26T17:44:21.444Z,41.90
2019-01-26T17:46:53.496Z,44.70
2019-01-26T17:49:25.883Z,42.53
2019-01-26T17:51:57.504Z,37.63
2019-01-26T17:54:33.397Z,37.10
2019-01-26T17:57:05.295Z,39.50
2019-01-26T17:59:38.454Z,39.33
2019-01-26T18:02:11.733Z,36.47
2019-01-26T18:04:45.366Z,39.70
2019-01-26T18:07:19.446Z,40.27
2019-01-26T18:09:54.442Z,46.53
2019-01-26T18:12:27.116Z,72.33
2019-01-26T18:15:00.449Z,65.77
2019-01-26T18:17:35.778Z,60.50
2019-01-26T18:20:12.663Z,118.17
2019-01-26T18:22:50.451Z,54.27
2019-01-26T18:25:28.106Z,52.43
2019-01-26T18:27:59.754Z,78.10
2019-01-26T18:30:38.721Z,67.13
2019-01-26T18:33:15.425Z,65.67
2019-01-26T18:35:48.584Z,49.07
2019-01-26T18:38:24.474Z,60.63
2019-01-26T18:41:05.023Z,46.53
2019-01-26T18:43:42.209Z,39.00
2019-01-26T18:46:14.356Z,35.47
2019-01-26T18:48:51.132Z,39.67
2019-01-26T18:51:24.446Z,40.67
2019-01-26T18:54:06.932Z,33.27
2019-01-26T18:56:40.096Z,32.30
2019-01-26T18:59:21.009Z,33.37
2019-01-26T19:01:58.798Z,32.90
2019-01-26T19:04:37.187Z,31.47
2019-01-26T19:07:10.538Z,34.00
2019-01-26T19:09:43.867Z,31.20
2019-01-26T19:12:16.463Z,31.20
2019-01-26T19:15:09.557Z,33.80
2019-01-26T19:17:41.802Z,31.80
2019-01-26T19:20:20.866Z,33.43
2019-01-26T19:22:55.578Z,33.10
2019-01-26T19:25:43.201Z,32.77
2019-01-26T19:28:27.434Z,34.43
2019-01-26T19:34:02.917Z,31.40
2019-01-26T19:36:41.691Z,31.63
2019-01-26T19:39:20.970Z,32.60
2019-01-26T19:41:55.820Z,32.30
2019-01-26T19:44:33.714Z,32.57
2019-01-26T19:47:05.321Z,38.83
2019-01-26T19:49:36.928Z,32.80
2019-01-26T19:52:08.593Z,34.83
2019-01-26T19:54:40.173Z,33.60
2019-01-26T19:57:19.507Z,36.00
2019-01-26T19:59:51.178Z,41.27
2019-01-26T20:02:25.028Z,32.07
2019-01-26T20:04:56.610Z,36.93
2019-01-26T20:07:28.480Z,33.67
2019-01-26T20:10:02.135Z,42.60
2019-01-26T20:12:33.798Z,32.60
2019-01-26T20:15:23.517Z,34.60
2019-01-26T20:17:55.223Z,33.10
2019-01-26T20:20:39.497Z,32.43
2019-01-26T20:23:11.087Z,27.93
2019-01-26T20:25:42.745Z,39.37
2019-01-26T20:28:17.000Z,31.97
2019-01-26T20:30:48.640Z,30.03
2019-01-26T20:33:23.530Z,40.53
2019-01-26T20:36:01.009Z,33.67
2019-01-26T20:38:36.470Z,30.50
2019-01-26T20:41:10.861Z,32.80
2019-01-26T20:43:42.533Z,32.57
2019-01-26T20:46:14.274Z,35.87
2019-01-26T20:48:47.534Z,31.87
2019-01-26T20:51:25.014Z,30.10
2019-01-26T20:53:55.786Z,30.37
2019-01-26T20:56:27.403Z,32.37
2019-01-26T20:59:03.239Z,34.47
2019-01-26T21:01:36.464Z,28.67
2019-01-26T21:04:08.605Z,30.97
2019-01-26T21:06:40.227Z,29.20
2019-01-26T21:09:11.890Z,31.17
2019-01-26T21:11:43.678Z,30.67
2019-01-26T21:14:17.859Z,30.20
2019-01-26T21:16:49.529Z,30.27
2019-01-26T21:19:24.696Z,30.80
2019-01-26T21:21:56.707Z,31.10
2019-01-26T21:24:28.978Z,28.90
2019-01-26T21:27:00.666Z,27.60
2019-01-26T21:29:32.365Z,28.00
2019-01-26T21:32:05.644Z,26.50
2019-01-26T21:34:37.884Z,27.03
2019-01-26T21:37:09.710Z,26.80
2019-01-26T21:39:41.499Z,23.03
2019-01-26T21:42:21.250Z,27.17
2019-01-26T21:44:56.021Z,29.27
2019-01-26T21:47:27.820Z,24.27
2019-01-26T21:49:59.520Z,22.43
2019-01-26T21:52:31.274Z,21.60
2019-01-26T21:55:03.114Z,22.27
2019-01-26T21:57:34.879Z,27.47
2019-01-26T22:00:11.853Z,32.80
2019-01-26T22:02:43.684Z,22.00
2019-01-26T22:05:15.779Z,23.50
2019-01-26T22:07:51.427Z,35.50
2019-01-26T22:10:28.632Z,22.67
2019-01-26T22:13:00.499Z,24.50
2019-01-26T22:15:33.756Z,26.43
2019-01-26T22:18:07.038Z,22.63
2019-01-26T22:20:38.774Z,21.47
2019-01-26T22:23:10.639Z,23.97
2019-01-26T22:25:42.256Z,22.57
2019-01-26T22:28:13.934Z,24.87
2019-01-26T22:30:45.873Z,25.77
2019-01-26T22:33:20.054Z,23.23
2019-01-26T22:35:51.788Z,23.53
2019-01-26T22:38:23.612Z,23.00
2019-01-26T22:40:55.539Z,26.13
2019-01-26T22:43:27.375Z,30.80
2019-01-26T22:45:59.054Z,25.63
2019-01-26T22:48:32.541Z,25.73
2019-01-26T22:51:04.325Z,25.03
2019-01-26T22:53:36.246Z,24.13
2019-01-26T22:56:08.224Z,32.37
2019-01-26T22:58:40.277Z,24.23
2019-01-26T23:01:14.875Z,24.03
2019-01-26T23:03:51.387Z,25.00
2019-01-26T23:06:38.311Z,27.27
2019-01-26T23:09:22.258Z,27.07
2019-01-26T23:12:13.965Z,29.93
2019-01-26T23:15:31.290Z,25.27
2019-01-26T23:18:25.948Z,26.93
2019-01-26T23:21:28.643Z,24.07
2019-01-26T23:24:26.282Z,28.63
2019-01-26T23:27:20.319Z,27.83
2019-01-26T23:30:16.563Z,30.80
2019-01-26T23:32:48.140Z,23.10
2019-01-26T23:35:19.998Z,24.17
2019-01-26T23:37:51.627Z,20.43
2019-01-26T23:40:23.241Z,19.80
2019-01-26T23:42:54.840Z,30.33
2019-01-26T23:45:26.427Z,20.50
2019-01-26T23:47:59.135Z,21.20
2019-01-26T23:50:30.825Z,19.93
2019-01-26T23:53:02.642Z,20.73
2019-01-26T23:55:34.236Z,21.73
2019-01-26T23:58:07.341Z,25.17
